sensor_id;sensor_type;location;lat;lon;timestamp;P1;durP1;ratioP1;P2;durP2;ratioP2
14247;SDS011;7208;49.826;6.004;2024-01-30T00:02:10;7.97;;;6.37;;
14247;SDS011;7208;49.826;6.004;2024-01-30T00:04:36;10.23;;;6.90;;
14247;SDS011;7208;49.826;6.004;2024-01-30T00:07:02;9.43;;;6.07;;
14247;SDS011;7208;49.826;6.004;2024-01-30T00:09:28;9.23;;;5.53;;
14247;SDS011;7208;49.826;6.004;2024-01-30T00:11:54;8.77;;;4.47;;
14247;SDS011;7208;49.826;6.004;2024-01-30T00:14:20;8.23;;;4.67;;
14247;SDS011;7208;49.826;6.004;2024-01-30T00:16:46;8.67;;;5.73;;
14247;SDS011;7208;49.826;6.004;2024-01-30T00:19:12;7.30;;;6.07;;
14247;SDS011;7208;49.826;6.004;2024-01-30T00:21:38;10.00;;;5.57;;
14247;SDS011;7208;49.826;6.004;2024-01-30T00:24:05;8.97;;;5.73;;
14247;SDS011;7208;49.826;6.004;2024-01-30T00:26:31;10.57;;;6.67;;
14247;SDS011;7208;49.826;6.004;2024-01-30T00:28:57;9.10;;;5.77;;
14247;SDS011;7208;49.826;6.004;2024-01-30T00:31:23;9.27;;;6.30;;
14247;SDS011;7208;49.826;6.004;2024-01-30T00:33:49;8.50;;;5.13;;
14247;SDS011;7208;49.826;6.004;2024-01-30T00:36:16;10.80;;;6.20;;
14247;SDS011;7208;49.826;6.004;2024-01-30T00:38:42;7.33;;;5.57;;
14247;SDS011;7208;49.826;6.004;2024-01-30T00:41:08;7.03;;;5.93;;
14247;SDS011;7208;49.826;6.004;2024-01-30T00:43:34;7.83;;;5.00;;
14247;SDS011;7208;49.826;6.004;2024-01-30T00:46:00;7.90;;;4.83;;
14247;SDS011;7208;49.826;6.004;2024-01-30T00:48:26;5.63;;;4.23;;
14247;SDS011;7208;49.826;6.004;2024-01-30T00:50:52;6.37;;;4.80;;
14247;SDS011;7208;49.826;6.004;2024-01-30T00:53:19;6.80;;;4.43;;
14247;SDS011;7208;49.826;6.004;2024-01-30T00:55:45;9.37;;;4.83;;
14247;SDS011;7208;49.826;6.004;2024-01-30T00:58:11;7.93;;;4.67;;
14247;SDS011;7208;49.826;6.004;2024-01-30T01:00:37;6.07;;;4.77;;
14247;SDS011;7208;49.826;6.004;2024-01-30T01:03:03;7.87;;;5.13;;
14247;SDS011;7208;49.826;6.004;2024-01-30T01:05:29;8.87;;;5.03;;
14247;SDS011;7208;49.826;6.004;2024-01-30T01:07:55;5.57;;;3.90;;
14247;SDS011;7208;49.826;6.004;2024-01-30T01:10:21;6.90;;;4.30;;
14247;SDS011;7208;49.826;6.004;2024-01-30T01:12:48;4.10;;;3.70;;
14247;SDS011;7208;49.826;6.004;2024-01-30T01:15:14;6.40;;;5.13;;
14247;SDS011;7208;49.826;6.004;2024-01-30T01:17:40;6.10;;;4.57;;
14247;SDS011;7208;49.826;6.004;2024-01-30T01:20:07;5.33;;;3.73;;
14247;SDS011;7208;49.826;6.004;2024-01-30T01:22:33;5.47;;;4.03;;
14247;SDS011;7208;49.826;6.004;2024-01-30T01:25:00;5.00;;;4.20;;
14247;SDS011;7208;49.826;6.004;2024-01-30T01:27:26;4.20;;;3.83;;
14247;SDS011;7208;49.826;6.004;2024-01-30T01:29:53;6.57;;;4.70;;
14247;SDS011;7208;49.826;6.004;2024-01-30T01:32:19;7.07;;;5.77;;
14247;SDS011;7208;49.826;6.004;2024-01-30T01:34:46;7.67;;;5.30;;
14247;SDS011;7208;49.826;6.004;2024-01-30T01:37:12;7.37;;;4.63;;
14247;SDS011;7208;49.826;6.004;2024-01-30T01:39:38;6.93;;;5.43;;
14247;SDS011;7208;49.826;6.004;2024-01-30T01:42:04;5.87;;;5.07;;
14247;SDS011;7208;49.826;6.004;2024-01-30T01:44:30;5.53;;;4.97;;
14247;SDS011;7208;49.826;6.004;2024-01-30T01:46:56;6.07;;;5.10;;
14247;SDS011;7208;49.826;6.004;2024-01-30T01:49:25;7.77;;;5.23;;
14247;SDS011;7208;49.826;6.004;2024-01-30T01:51:54;5.60;;;4.37;;
14247;SDS011;7208;49.826;6.004;2024-01-30T01:54:24;9.03;;;4.77;;
14247;SDS011;7208;49.826;6.004;2024-01-30T01:56:51;4.43;;;3.50;;
14247;SDS011;7208;49.826;6.004;2024-01-30T01:59:17;5.43;;;4.20;;
14247;SDS011;7208;49.826;6.004;2024-01-30T02:01:43;5.47;;;4.13;;
14247;SDS011;7208;49.826;6.004;2024-01-30T02:04:14;5.70;;;4.40;;
14247;SDS011;7208;49.826;6.004;2024-01-30T02:06:40;6.27;;;3.73;;
14247;SDS011;7208;49.826;6.004;2024-01-30T02:09:06;5.70;;;4.33;;
14247;SDS011;7208;49.826;6.004;2024-01-30T02:11:34;4.20;;;3.83;;
14247;SDS011;7208;49.826;6.004;2024-01-30T02:14:03;6.43;;;4.67;;
14247;SDS011;7208;49.826;6.004;2024-01-30T02:16:29;4.23;;;3.83;;
14247;SDS011;7208;49.826;6.004;2024-01-30T02:18:55;6.13;;;5.23;;
14247;SDS011;7208;49.826;6.004;2024-01-30T02:21:21;6.43;;;4.97;;
14247;SDS011;7208;49.826;6.004;2024-01-30T02:23:47;4.33;;;3.30;;
14247;SDS011;7208;49.826;6.004;2024-01-30T02:26:14;4.80;;;3.83;;
14247;SDS011;7208;49.826;6.004;2024-01-30T02:28:40;4.77;;;4.17;;
14247;SDS011;7208;49.826;6.004;2024-01-30T02:31:06;4.00;;;3.60;;
14247;SDS011;7208;49.826;6.004;2024-01-30T02:33:32;3.83;;;2.97;;
14247;SDS011;7208;49.826;6.004;2024-01-30T02:35:59;4.80;;;4.40;;
14247;SDS011;7208;49.826;6.004;2024-01-30T02:38:25;4.43;;;4.03;;
14247;SDS011;7208;49.826;6.004;2024-01-30T02:40:52;5.13;;;4.07;;
14247;SDS011;7208;49.826;6.004;2024-01-30T02:43:18;8.10;;;4.20;;
14247;SDS011;7208;49.826;6.004;2024-01-30T02:45:44;3.90;;;3.37;;
14247;SDS011;7208;49.826;6.004;2024-01-30T02:48:10;5.37;;;4.43;;
14247;SDS011;7208;49.826;6.004;2024-01-30T02:50:36;5.87;;;3.90;;
14247;SDS011;7208;49.826;6.004;2024-01-30T02:53:03;3.63;;;3.33;;
14247;SDS011;7208;49.826;6.004;2024-01-30T02:55:29;4.93;;;3.60;;
14247;SDS011;7208;49.826;6.004;2024-01-30T02:57:55;7.93;;;5.13;;
14247;SDS011;7208;49.826;6.004;2024-01-30T03:00:21;4.83;;;3.73;;
14247;SDS011;7208;49.826;6.004;2024-01-30T03:02:47;4.90;;;4.40;;
14247;SDS011;7208;49.826;6.004;2024-01-30T03:05:13;3.60;;;3.30;;
14247;SDS011;7208;49.826;6.004;2024-01-30T03:07:39;4.57;;;3.53;;
14247;SDS011;7208;49.826;6.004;2024-01-30T03:10:05;4.13;;;3.67;;
14247;SDS011;7208;49.826;6.004;2024-01-30T03:12:32;4.33;;;3.83;;
14247;SDS011;7208;49.826;6.004;2024-01-30T03:14:58;5.87;;;4.50;;
14247;SDS011;7208;49.826;6.004;2024-01-30T03:17:24;3.60;;;3.30;;
14247;SDS011;7208;49.826;6.004;2024-01-30T03:19:50;3.20;;;2.90;;
14247;SDS011;7208;49.826;6.004;2024-01-30T03:22:16;5.87;;;3.90;;
14247;SDS011;7208;49.826;6.004;2024-01-30T03:24:42;5.43;;;3.83;;
14247;SDS011;7208;49.826;6.004;2024-01-30T03:27:08;4.63;;;3.17;;
14247;SDS011;7208;49.826;6.004;2024-01-30T03:29:35;4.07;;;3.40;;
14247;SDS011;7208;49.826;6.004;2024-01-30T03:32:01;4.63;;;3.90;;
14247;SDS011;7208;49.826;6.004;2024-01-30T03:34:28;3.40;;;2.87;;
14247;SDS011;7208;49.826;6.004;2024-01-30T03:36:54;4.87;;;4.37;;
14247;SDS011;7208;49.826;6.004;2024-01-30T03:39:21;4.33;;;3.93;;
14247;SDS011;7208;49.826;6.004;2024-01-30T03:41:47;4.97;;;3.67;;
14247;SDS011;7208;49.826;6.004;2024-01-30T03:44:13;4.17;;;3.77;;
14247;SDS011;7208;49.826;6.004;2024-01-30T03:46:39;3.97;;;3.47;;
14247;SDS011;7208;49.826;6.004;2024-01-30T03:49:05;5.07;;;4.07;;
14247;SDS011;7208;49.826;6.004;2024-01-30T03:51:31;8.17;;;4.50;;
14247;SDS011;7208;49.826;6.004;2024-01-30T03:53:57;5.17;;;3.80;;
14247;SDS011;7208;49.826;6.004;2024-01-30T03:56:23;3.80;;;3.33;;
14247;SDS011;7208;49.826;6.004;2024-01-30T03:58:50;5.43;;;4.20;;
14247;SDS011;7208;49.826;6.004;2024-01-30T04:01:16;5.50;;;3.83;;
14247;SDS011;7208;49.826;6.004;2024-01-30T04:03:42;4.83;;;3.97;;
14247;SDS011;7208;49.826;6.004;2024-01-30T04:06:09;3.43;;;2.87;;
14247;SDS011;7208;49.826;6.004;2024-01-30T04:08:35;7.00;;;3.87;;
14247;SDS011;7208;49.826;6.004;2024-01-30T04:11:04;4.53;;;4.00;;
14247;SDS011;7208;49.826;6.004;2024-01-30T04:13:31;4.40;;;3.23;;
14247;SDS011;7208;49.826;6.004;2024-01-30T04:15:58;4.10;;;3.73;;
14247;SDS011;7208;49.826;6.004;2024-01-30T04:18:26;3.70;;;3.40;;
14247;SDS011;7208;49.826;6.004;2024-01-30T04:20:52;4.50;;;3.70;;
14247;SDS011;7208;49.826;6.004;2024-01-30T04:23:18;3.53;;;3.00;;
14247;SDS011;7208;49.826;6.004;2024-01-30T04:25:44;3.90;;;3.27;;
14247;SDS011;7208;49.826;6.004;2024-01-30T04:28:10;5.00;;;3.63;;
14247;SDS011;7208;49.826;6.004;2024-01-30T04:30:40;10.00;;;7.80;;
14247;SDS011;7208;49.826;6.004;2024-01-30T04:33:06;5.90;;;4.90;;
14247;SDS011;7208;49.826;6.004;2024-01-30T04:35:32;6.70;;;4.07;;
14247;SDS011;7208;49.826;6.004;2024-01-30T04:37:58;4.13;;;3.73;;
14247;SDS011;7208;49.826;6.004;2024-01-30T04:40:24;5.00;;;4.50;;
14247;SDS011;7208;49.826;6.004;2024-01-30T04:42:50;6.20;;;4.03;;
14247;SDS011;7208;49.826;6.004;2024-01-30T04:45:16;4.90;;;3.20;;
14247;SDS011;7208;49.826;6.004;2024-01-30T04:47:42;5.67;;;3.47;;
14247;SDS011;7208;49.826;6.004;2024-01-30T04:50:08;3.17;;;2.90;;
14247;SDS011;7208;49.826;6.004;2024-01-30T04:52:34;4.33;;;3.30;;
14247;SDS011;7208;49.826;6.004;2024-01-30T04:55:01;5.37;;;4.03;;
14247;SDS011;7208;49.826;6.004;2024-01-30T04:57:27;4.17;;;3.17;;
14247;SDS011;7208;49.826;6.004;2024-01-30T04:59:53;4.23;;;3.77;;
14247;SDS011;7208;49.826;6.004;2024-01-30T05:02:19;3.57;;;3.13;;
14247;SDS011;7208;49.826;6.004;2024-01-30T05:04:45;4.80;;;4.23;;
14247;SDS011;7208;49.826;6.004;2024-01-30T05:07:11;5.72;;;4.35;;
14247;SDS011;7208;49.826;6.004;2024-01-30T05:09:37;4.73;;;4.07;;
14247;SDS011;7208;49.826;6.004;2024-01-30T05:12:03;4.67;;;3.97;;
14247;SDS011;7208;49.826;6.004;2024-01-30T05:14:29;4.57;;;3.83;;
14247;SDS011;7208;49.826;6.004;2024-01-30T05:16:55;5.03;;;3.77;;
14247;SDS011;7208;49.826;6.004;2024-01-30T05:19:21;4.30;;;3.73;;
14247;SDS011;7208;49.826;6.004;2024-01-30T05:21:48;5.00;;;3.40;;
14247;SDS011;7208;49.826;6.004;2024-01-30T05:24:14;5.17;;;3.60;;
14247;SDS011;7208;49.826;6.004;2024-01-30T05:26:40;5.70;;;3.83;;
14247;SDS011;7208;49.826;6.004;2024-01-30T05:29:06;4.17;;;3.43;;
14247;SDS011;7208;49.826;6.004;2024-01-30T05:31:33;5.33;;;3.77;;
14247;SDS011;7208;49.826;6.004;2024-01-30T05:33:59;3.13;;;2.80;;
14247;SDS011;7208;49.826;6.004;2024-01-30T05:36:25;3.93;;;3.50;;
14247;SDS011;7208;49.826;6.004;2024-01-30T05:38:51;5.40;;;3.93;;
14247;SDS011;7208;49.826;6.004;2024-01-30T05:41:17;4.37;;;3.10;;
14247;SDS011;7208;49.826;6.004;2024-01-30T05:43:43;6.30;;;4.00;;
14247;SDS011;7208;49.826;6.004;2024-01-30T05:46:09;4.77;;;4.27;;
14247;SDS011;7208;49.826;6.004;2024-01-30T05:48:35;5.33;;;4.50;;
14247;SDS011;7208;49.826;6.004;2024-01-30T05:51:02;5.23;;;3.27;;
14247;SDS011;7208;49.826;6.004;2024-01-30T05:53:29;5.07;;;4.23;;
14247;SDS011;7208;49.826;6.004;2024-01-30T05:55:55;6.93;;;5.13;;
14247;SDS011;7208;49.826;6.004;2024-01-30T05:58:21;6.27;;;4.27;;
14247;SDS011;7208;49.826;6.004;2024-01-30T06:00:47;5.47;;;4.33;;
14247;SDS011;7208;49.826;6.004;2024-01-30T06:03:14;6.00;;;4.90;;
14247;SDS011;7208;49.826;6.004;2024-01-30T06:05:40;7.47;;;6.55;;
14247;SDS011;7208;49.826;6.004;2024-01-30T06:08:06;8.27;;;5.60;;
14247;SDS011;7208;49.826;6.004;2024-01-30T06:10:32;6.07;;;4.57;;
14247;SDS011;7208;49.826;6.004;2024-01-30T06:12:58;7.43;;;5.70;;
14247;SDS011;7208;49.826;6.004;2024-01-30T06:15:25;7.07;;;5.00;;
14247;SDS011;7208;49.826;6.004;2024-01-30T06:17:51;8.20;;;5.63;;
14247;SDS011;7208;49.826;6.004;2024-01-30T06:20:17;7.37;;;4.43;;
14247;SDS011;7208;49.826;6.004;2024-01-30T06:22:43;7.10;;;5.57;;
14247;SDS011;7208;49.826;6.004;2024-01-30T06:25:09;7.53;;;4.50;;
14247;SDS011;7208;49.826;6.004;2024-01-30T06:27:37;5.10;;;4.53;;
14247;SDS011;7208;49.826;6.004;2024-01-30T06:30:03;7.37;;;5.43;;
14247;SDS011;7208;49.826;6.004;2024-01-30T06:32:30;9.00;;;5.17;;
14247;SDS011;7208;49.826;6.004;2024-01-30T06:34:59;9.93;;;5.57;;
14247;SDS011;7208;49.826;6.004;2024-01-30T06:37:25;6.77;;;4.80;;
14247;SDS011;7208;49.826;6.004;2024-01-30T06:39:51;8.13;;;5.53;;
14247;SDS011;7208;49.826;6.004;2024-01-30T06:42:17;6.63;;;5.53;;
14247;SDS011;7208;49.826;6.004;2024-01-30T06:44:43;6.40;;;5.47;;
14247;SDS011;7208;49.826;6.004;2024-01-30T06:47:10;5.97;;;4.20;;
14247;SDS011;7208;49.826;6.004;2024-01-30T06:49:36;5.83;;;5.03;;
14247;SDS011;7208;49.826;6.004;2024-01-30T06:52:06;9.07;;;5.20;;
14247;SDS011;7208;49.826;6.004;2024-01-30T06:54:32;7.77;;;5.90;;
14247;SDS011;7208;49.826;6.004;2024-01-30T06:56:58;5.93;;;4.17;;
14247;SDS011;7208;49.826;6.004;2024-01-30T06:59:24;5.40;;;4.13;;
14247;SDS011;7208;49.826;6.004;2024-01-30T07:01:50;8.27;;;5.47;;
14247;SDS011;7208;49.826;6.004;2024-01-30T07:04:16;7.07;;;4.40;;
14247;SDS011;7208;49.826;6.004;2024-01-30T07:06:43;7.83;;;5.37;;
14247;SDS011;7208;49.826;6.004;2024-01-30T07:09:09;9.10;;;5.33;;
14247;SDS011;7208;49.826;6.004;2024-01-30T07:11:35;10.20;;;5.63;;
14247;SDS011;7208;49.826;6.004;2024-01-30T07:14:01;7.90;;;5.27;;
14247;SDS011;7208;49.826;6.004;2024-01-30T07:16:30;7.93;;;5.57;;
14247;SDS011;7208;49.826;6.004;2024-01-30T07:18:56;8.83;;;6.50;;
14247;SDS011;7208;49.826;6.004;2024-01-30T07:21:25;6.73;;;4.63;;
14247;SDS011;7208;49.826;6.004;2024-01-30T07:23:56;6.10;;;4.97;;
14247;SDS011;7208;49.826;6.004;2024-01-30T07:26:22;6.57;;;5.33;;
14247;SDS011;7208;49.826;6.004;2024-01-30T07:28:48;7.70;;;4.87;;
14247;SDS011;7208;49.826;6.004;2024-01-30T07:31:15;7.37;;;5.60;;
14247;SDS011;7208;49.826;6.004;2024-01-30T07:33:41;7.87;;;4.97;;
14247;SDS011;7208;49.826;6.004;2024-01-30T07:36:08;6.30;;;5.70;;
14247;SDS011;7208;49.826;6.004;2024-01-30T07:38:35;7.03;;;5.10;;
14247;SDS011;7208;49.826;6.004;2024-01-30T07:41:01;7.87;;;5.37;;
14247;SDS011;7208;49.826;6.004;2024-01-30T07:43:27;8.97;;;5.13;;
14247;SDS011;7208;49.826;6.004;2024-01-30T07:45:53;9.40;;;6.53;;
14247;SDS011;7208;49.826;6.004;2024-01-30T07:48:19;10.70;;;6.37;;
14247;SDS011;7208;49.826;6.004;2024-01-30T07:50:46;18.57;;;10.70;;
14247;SDS011;7208;49.826;6.004;2024-01-30T07:53:12;30.30;;;12.07;;
14247;SDS011;7208;49.826;6.004;2024-01-30T07:55:38;12.93;;;7.97;;
14247;SDS011;7208;49.826;6.004;2024-01-30T07:58:04;10.53;;;5.00;;
14247;SDS011;7208;49.826;6.004;2024-01-30T08:00:30;9.03;;;6.33;;
14247;SDS011;7208;49.826;6.004;2024-01-30T08:02:56;8.43;;;4.07;;
14247;SDS011;7208;49.826;6.004;2024-01-30T08:05:23;8.00;;;6.00;;
14247;SDS011;7208;49.826;6.004;2024-01-30T08:07:49;7.37;;;5.97;;
14247;SDS011;7208;49.826;6.004;2024-01-30T08:10:15;8.37;;;5.63;;
14247;SDS011;7208;49.826;6.004;2024-01-30T08:12:43;8.30;;;6.53;;
14247;SDS011;7208;49.826;6.004;2024-01-30T08:15:10;8.97;;;5.97;;
14247;SDS011;7208;49.826;6.004;2024-01-30T08:17:37;8.20;;;5.87;;
14247;SDS011;7208;49.826;6.004;2024-01-30T08:20:03;7.90;;;6.37;;
14247;SDS011;7208;49.826;6.004;2024-01-30T08:22:29;9.53;;;6.47;;
14247;SDS011;7208;49.826;6.004;2024-01-30T08:24:55;7.33;;;5.03;;
14247;SDS011;7208;49.826;6.004;2024-01-30T08:27:22;10.50;;;5.73;;
14247;SDS011;7208;49.826;6.004;2024-01-30T08:29:48;6.13;;;5.30;;
14247;SDS011;7208;49.826;6.004;2024-01-30T08:32:15;7.70;;;6.00;;
14247;SDS011;7208;49.826;6.004;2024-01-30T08:34:41;5.97;;;4.53;;
14247;SDS011;7208;49.826;6.004;2024-01-30T08:37:07;5.97;;;4.93;;
14247;SDS011;7208;49.826;6.004;2024-01-30T08:39:33;7.40;;;6.20;;
14247;SDS011;7208;49.826;6.004;2024-01-30T08:41:59;6.73;;;4.60;;
14247;SDS011;7208;49.826;6.004;2024-01-30T08:44:25;5.00;;;4.37;;
14247;SDS011;7208;49.826;6.004;2024-01-30T08:46:52;10.80;;;6.87;;
14247;SDS011;7208;49.826;6.004;2024-01-30T08:49:19;23.93;;;9.37;;
14247;SDS011;7208;49.826;6.004;2024-01-30T08:51:45;14.57;;;7.57;;
14247;SDS011;7208;49.826;6.004;2024-01-30T08:54:12;7.07;;;5.53;;
14247;SDS011;7208;49.826;6.004;2024-01-30T08:56:38;9.00;;;5.67;;
14247;SDS011;7208;49.826;6.004;2024-01-30T08:59:04;19.47;;;8.73;;
14247;SDS011;7208;49.826;6.004;2024-01-30T09:01:33;12.60;;;7.37;;
14247;SDS011;7208;49.826;6.004;2024-01-30T09:03:59;12.10;;;6.40;;
14247;SDS011;7208;49.826;6.004;2024-01-30T09:06:25;6.17;;;5.17;;
14247;SDS011;7208;49.826;6.004;2024-01-30T09:08:53;8.70;;;6.20;;
14247;SDS011;7208;49.826;6.004;2024-01-30T09:11:19;7.37;;;5.60;;
14247;SDS011;7208;49.826;6.004;2024-01-30T09:13:45;8.27;;;5.37;;
14247;SDS011;7208;49.826;6.004;2024-01-30T09:16:11;8.30;;;5.00;;
14247;SDS011;7208;49.826;6.004;2024-01-30T09:18:37;10.03;;;5.50;;
14247;SDS011;7208;49.826;6.004;2024-01-30T09:21:04;8.57;;;6.40;;
14247;SDS011;7208;49.826;6.004;2024-01-30T09:23:30;9.83;;;6.20;;
14247;SDS011;7208;49.826;6.004;2024-01-30T09:25:56;9.20;;;6.43;;
14247;SDS011;7208;49.826;6.004;2024-01-30T09:28:22;9.03;;;6.63;;
14247;SDS011;7208;49.826;6.004;2024-01-30T09:30:48;9.90;;;6.70;;
14247;SDS011;7208;49.826;6.004;2024-01-30T09:33:14;12.00;;;8.67;;
14247;SDS011;7208;49.826;6.004;2024-01-30T09:35:40;12.27;;;6.63;;
14247;SDS011;7208;49.826;6.004;2024-01-30T09:38:06;10.33;;;7.10;;
14247;SDS011;7208;49.826;6.004;2024-01-30T09:40:32;10.40;;;7.80;;
14247;SDS011;7208;49.826;6.004;2024-01-30T09:42:58;8.90;;;7.23;;
14247;SDS011;7208;49.826;6.004;2024-01-30T09:45:27;10.07;;;7.90;;
14247;SDS011;7208;49.826;6.004;2024-01-30T09:47:53;8.10;;;6.50;;
14247;SDS011;7208;49.826;6.004;2024-01-30T09:50:19;11.60;;;8.03;;
14247;SDS011;7208;49.826;6.004;2024-01-30T09:52:46;9.53;;;7.03;;
14247;SDS011;7208;49.826;6.004;2024-01-30T09:55:12;9.00;;;6.63;;
14247;SDS011;7208;49.826;6.004;2024-01-30T09:57:38;9.47;;;7.60;;
14247;SDS011;7208;49.826;6.004;2024-01-30T10:00:04;9.20;;;6.90;;
14247;SDS011;7208;49.826;6.004;2024-01-30T10:02:34;10.37;;;8.30;;
14247;SDS011;7208;49.826;6.004;2024-01-30T10:05:00;11.63;;;8.93;;
14247;SDS011;7208;49.826;6.004;2024-01-30T10:07:26;12.00;;;7.83;;
14247;SDS011;7208;49.826;6.004;2024-01-30T10:09:52;12.57;;;9.97;;
14247;SDS011;7208;49.826;6.004;2024-01-30T10:12:20;9.33;;;7.20;;
14247;SDS011;7208;49.826;6.004;2024-01-30T10:14:46;9.43;;;6.97;;
14247;SDS011;7208;49.826;6.004;2024-01-30T10:17:12;10.97;;;8.20;;
14247;SDS011;7208;49.826;6.004;2024-01-30T10:19:39;9.93;;;7.57;;
14247;SDS011;7208;49.826;6.004;2024-01-30T10:22:05;9.47;;;7.10;;
14247;SDS011;7208;49.826;6.004;2024-01-30T10:24:33;8.97;;;7.00;;
14247;SDS011;7208;49.826;6.004;2024-01-30T10:26:59;8.47;;;7.67;;
14247;SDS011;7208;49.826;6.004;2024-01-30T10:29:26;8.17;;;6.60;;
14247;SDS011;7208;49.826;6.004;2024-01-30T10:34:24;9.20;;;6.87;;
14247;SDS011;7208;49.826;6.004;2024-01-30T10:36:51;8.97;;;7.50;;
14247;SDS011;7208;49.826;6.004;2024-01-30T10:39:20;8.63;;;7.67;;
14247;SDS011;7208;49.826;6.004;2024-01-30T10:41:47;12.30;;;7.13;;
14247;SDS011;7208;49.826;6.004;2024-01-30T10:44:13;9.87;;;8.10;;
14247;SDS011;7208;49.826;6.004;2024-01-30T10:46:43;8.10;;;7.23;;
14247;SDS011;7208;49.826;6.004;2024-01-30T10:49:11;8.43;;;7.53;;
14247;SDS011;7208;49.826;6.004;2024-01-30T10:51:38;13.40;;;8.70;;
14247;SDS011;7208;49.826;6.004;2024-01-30T10:54:05;11.50;;;8.30;;
14247;SDS011;7208;49.826;6.004;2024-01-30T10:56:31;11.30;;;8.30;;
14247;SDS011;7208;49.826;6.004;2024-01-30T10:58:58;14.70;;;7.90;;
14247;SDS011;7208;49.826;6.004;2024-01-30T11:01:24;10.47;;;7.90;;
14247;SDS011;7208;49.826;6.004;2024-01-30T11:03:51;10.53;;;7.80;;
14247;SDS011;7208;49.826;6.004;2024-01-30T11:06:18;9.63;;;7.43;;
14247;SDS011;7208;49.826;6.004;2024-01-30T11:08:47;8.90;;;6.87;;
14247;SDS011;7208;49.826;6.004;2024-01-30T11:11:25;9.77;;;7.70;;
14247;SDS011;7208;49.826;6.004;2024-01-30T11:13:51;9.73;;;7.40;;
14247;SDS011;7208;49.826;6.004;2024-01-30T11:16:17;9.33;;;7.80;;
14247;SDS011;7208;49.826;6.004;2024-01-30T11:18:49;8.47;;;7.53;;
14247;SDS011;7208;49.826;6.004;2024-01-30T11:21:16;6.83;;;6.13;;
14247;SDS011;7208;49.826;6.004;2024-01-30T11:23:42;7.23;;;6.50;;
14247;SDS011;7208;49.826;6.004;2024-01-30T11:26:11;9.27;;;6.97;;
14247;SDS011;7208;49.826;6.004;2024-01-30T11:28:37;8.07;;;6.70;;
14247;SDS011;7208;49.826;6.004;2024-01-30T11:31:07;7.20;;;6.50;;
14247;SDS011;7208;49.826;6.004;2024-01-30T11:33:33;7.27;;;6.43;;
14247;SDS011;7208;49.826;6.004;2024-01-30T11:36:00;9.37;;;7.00;;
14247;SDS011;7208;49.826;6.004;2024-01-30T11:38:26;8.57;;;7.67;;
14247;SDS011;7208;49.826;6.004;2024-01-30T11:40:54;7.23;;;6.53;;
14247;SDS011;7208;49.826;6.004;2024-01-30T11:43:23;8.37;;;6.90;;
14247;SDS011;7208;49.826;6.004;2024-01-30T11:45:49;9.40;;;7.27;;
14247;SDS011;7208;49.826;6.004;2024-01-30T11:48:16;9.87;;;6.80;;
14247;SDS011;7208;49.826;6.004;2024-01-30T11:50:43;6.83;;;5.53;;
14247;SDS011;7208;49.826;6.004;2024-01-30T11:53:12;6.87;;;5.83;;
14247;SDS011;7208;49.826;6.004;2024-01-30T11:55:38;7.60;;;6.17;;
14247;SDS011;7208;49.826;6.004;2024-01-30T11:58:04;8.53;;;6.80;;
14247;SDS011;7208;49.826;6.004;2024-01-30T12:00:30;7.73;;;6.90;;
14247;SDS011;7208;49.826;6.004;2024-01-30T12:02:58;6.57;;;5.97;;
14247;SDS011;7208;49.826;6.004;2024-01-30T12:05:25;9.23;;;6.03;;
14247;SDS011;7208;49.826;6.004;2024-01-30T12:07:52;7.40;;;6.63;;
14247;SDS011;7208;49.826;6.004;2024-01-30T12:10:18;7.07;;;6.43;;
14247;SDS011;7208;49.826;6.004;2024-01-30T12:12:51;7.70;;;6.40;;
14247;SDS011;7208;49.826;6.004;2024-01-30T12:15:18;6.87;;;6.17;;
14247;SDS011;7208;49.826;6.004;2024-01-30T12:17:46;7.33;;;6.20;;
14247;SDS011;7208;49.826;6.004;2024-01-30T12:20:13;7.00;;;5.90;;
14247;SDS011;7208;49.826;6.004;2024-01-30T12:22:40;8.23;;;6.27;;
14247;SDS011;7208;49.826;6.004;2024-01-30T12:27:39;5.87;;;5.27;;
14247;SDS011;7208;49.826;6.004;2024-01-30T12:30:06;6.43;;;5.80;;
14247;SDS011;7208;49.826;6.004;2024-01-30T12:32:36;6.87;;;6.03;;
14247;SDS011;7208;49.826;6.004;2024-01-30T12:35:03;6.63;;;5.73;;
14247;SDS011;7208;49.826;6.004;2024-01-30T12:37:32;6.50;;;5.03;;
14247;SDS011;7208;49.826;6.004;2024-01-30T12:39:58;7.80;;;5.07;;
14247;SDS011;7208;49.826;6.004;2024-01-30T12:42:24;5.90;;;5.37;;
14247;SDS011;7208;49.826;6.004;2024-01-30T12:44:52;6.60;;;5.00;;
14247;SDS011;7208;49.826;6.004;2024-01-30T12:47:21;5.50;;;4.80;;
14247;SDS011;7208;49.826;6.004;2024-01-30T12:49:47;5.60;;;5.10;;
14247;SDS011;7208;49.826;6.004;2024-01-30T12:52:14;5.63;;;5.13;;
14247;SDS011;7208;49.826;6.004;2024-01-30T12:54:40;5.80;;;4.67;;
14247;SDS011;7208;49.826;6.004;2024-01-30T12:57:06;5.47;;;4.80;;
14247;SDS011;7208;49.826;6.004;2024-01-30T12:59:32;5.80;;;5.13;;
14247;SDS011;7208;49.826;6.004;2024-01-30T13:02:00;6.43;;;5.40;;
14247;SDS011;7208;49.826;6.004;2024-01-30T13:04:26;8.20;;;5.07;;
14247;SDS011;7208;49.826;6.004;2024-01-30T13:06:52;4.97;;;4.27;;
14247;SDS011;7208;49.826;6.004;2024-01-30T13:09:18;7.03;;;5.13;;
14247;SDS011;7208;49.826;6.004;2024-01-30T13:11:45;5.13;;;4.63;;
14247;SDS011;7208;49.826;6.004;2024-01-30T13:14:11;6.03;;;4.87;;
14247;SDS011;7208;49.826;6.004;2024-01-30T13:16:37;5.57;;;5.00;;
14247;SDS011;7208;49.826;6.004;2024-01-30T13:19:03;5.50;;;4.90;;
14247;SDS011;7208;49.826;6.004;2024-01-30T13:21:29;6.50;;;4.80;;
14247;SDS011;7208;49.826;6.004;2024-01-30T13:23:55;8.37;;;4.50;;
14247;SDS011;7208;49.826;6.004;2024-01-30T13:26:21;7.27;;;5.43;;
14247;SDS011;7208;49.826;6.004;2024-01-30T13:28:47;6.53;;;5.30;;
14247;SDS011;7208;49.826;6.004;2024-01-30T13:31:16;6.87;;;5.47;;
14247;SDS011;7208;49.826;6.004;2024-01-30T13:33:43;6.00;;;4.57;;
14247;SDS011;7208;49.826;6.004;2024-01-30T13:36:10;6.00;;;5.40;;
14247;SDS011;7208;49.826;6.004;2024-01-30T13:38:37;6.17;;;4.70;;
14247;SDS011;7208;49.826;6.004;2024-01-30T13:41:04;5.00;;;4.47;;
14247;SDS011;7208;49.826;6.004;2024-01-30T13:43:30;6.03;;;5.43;;
14247;SDS011;7208;49.826;6.004;2024-01-30T13:45:56;6.27;;;5.37;;
14247;SDS011;7208;49.826;6.004;2024-01-30T13:48:22;8.87;;;5.10;;
14247;SDS011;7208;49.826;6.004;2024-01-30T13:50:48;6.37;;;5.10;;
14247;SDS011;7208;49.826;6.004;2024-01-30T13:53:14;5.00;;;4.60;;
14247;SDS011;7208;49.826;6.004;2024-01-30T13:55:40;5.80;;;3.60;;
14247;SDS011;7208;49.826;6.004;2024-01-30T13:58:06;5.60;;;5.10;;
14247;SDS011;7208;49.826;6.004;2024-01-30T14:00:33;8.37;;;5.00;;
14247;SDS011;7208;49.826;6.004;2024-01-30T14:02:59;5.60;;;4.80;;
14247;SDS011;7208;49.826;6.004;2024-01-30T14:05:25;5.10;;;4.60;;
14247;SDS011;7208;49.826;6.004;2024-01-30T14:07:53;5.27;;;4.30;;
14247;SDS011;7208;49.826;6.004;2024-01-30T14:10:19;4.73;;;4.30;;
14247;SDS011;7208;49.826;6.004;2024-01-30T14:12:45;5.73;;;4.87;;
14247;SDS011;7208;49.826;6.004;2024-01-30T14:15:15;5.93;;;4.70;;
14247;SDS011;7208;49.826;6.004;2024-01-30T14:17:43;4.97;;;4.47;;
14247;SDS011;7208;49.826;6.004;2024-01-30T14:20:10;5.80;;;4.90;;
14247;SDS011;7208;49.826;6.004;2024-01-30T14:22:36;5.60;;;5.03;;
14247;SDS011;7208;49.826;6.004;2024-01-30T14:25:03;7.03;;;4.67;;
14247;SDS011;7208;49.826;6.004;2024-01-30T14:27:30;6.53;;;4.80;;
14247;SDS011;7208;49.826;6.004;2024-01-30T14:29:56;6.07;;;4.83;;
14247;SDS011;7208;49.826;6.004;2024-01-30T14:32:23;5.37;;;4.33;;
14247;SDS011;7208;49.826;6.004;2024-01-30T14:34:49;6.87;;;4.93;;
14247;SDS011;7208;49.826;6.004;2024-01-30T14:37:15;5.70;;;5.13;;
14247;SDS011;7208;49.826;6.004;2024-01-30T14:39:41;5.07;;;4.57;;
14247;SDS011;7208;49.826;6.004;2024-01-30T14:42:07;4.97;;;4.47;;
14247;SDS011;7208;49.826;6.004;2024-01-30T14:44:34;5.00;;;4.20;;
14247;SDS011;7208;49.826;6.004;2024-01-30T14:47:00;12.33;;;5.20;;
14247;SDS011;7208;49.826;6.004;2024-01-30T14:49:26;6.17;;;4.73;;
14247;SDS011;7208;49.826;6.004;2024-01-30T14:51:52;5.80;;;5.30;;
14247;SDS011;7208;49.826;6.004;2024-01-30T14:54:18;4.83;;;4.37;;
14247;SDS011;7208;49.826;6.004;2024-01-30T14:56:45;9.57;;;5.93;;
14247;SDS011;7208;49.826;6.004;2024-01-30T14:59:11;7.10;;;4.57;;
14247;SDS011;7208;49.826;6.004;2024-01-30T15:01:37;6.60;;;4.50;;